• Join FlightAware (Why Join?)
  • Login
  • US Flag 
02:10PM EST


 

Airport Tracker/Info


-or-


 

Live Flight TrackerFlight Track Log ✈ VOZ960 ✈ 27-Feb-2014 ✈ YBBN / BNE - YSSY / SYD

Flight Track Log - Related Links

Times and Time Zones

All times are in EST time to prevent confusion due to time zone crossing. See the VOZ960 flight status page for this flight to view local times or setup timezone preferences in your user account.

Time Position Orientation Groundspeed Altitude Reporting Facility
EST Latitude Longitude Course Direction KTS MPH feet Rate Location/Type
12:55AM -27.3901 153.1255 28° Northeast 110 127  Level FlightAware ADS-B (EKCH / CPH)
12:55AM -27.3786 153.1320 27° Northeast 153 176 200 1,260 Climbing FlightAware ADS-B (EKCH / CPH)
12:56AM -27.3655 153.1398 30° Northeast 162 186 900 2,100 Climbing FlightAware ADS-B (EKCH / CPH)
12:56AM -27.3541 153.1498 42° Northeast 172 198 1,600 1,500 Climbing FlightAware ADS-B (EKCH / CPH)
12:56AM -27.3409 153.1636 43° Northeast 200 230 1,900 1,200 Climbing FlightAware ADS-B (EKCH / CPH)
12:57AM -27.3276 153.1772 45° Northeast 221 254 2,400 1,800 Climbing FlightAware ADS-B (EKCH / CPH)
12:57AM -27.3211 153.1868 65° Northeast 224 258 2,800 2,400 Climbing FlightAware ADS-B (EKCH / CPH)
12:57AM -27.3180 153.1990 84° East 223 257 3,200 2,400 Climbing FlightAware ADS-B (EKCH / CPH)
12:57AM -27.3184 153.2103 102° East 224 258 3,600 2,400 Climbing FlightAware ADS-B (EKCH / CPH)
12:57AM -27.3217 153.2202 121° Southeast 223 257 4,000 2,700 Climbing FlightAware ADS-B (EKCH / CPH)
12:57AM -27.3292 153.2302 140° Southeast 221 254 4,500 2,820 Climbing FlightAware ADS-B (EKCH / CPH)
12:58AM -27.3379 153.2357 159° South 217 250 5,000 2,820 Climbing FlightAware ADS-B (EKCH / CPH)
12:58AM -27.3478 153.2379 176° South 218 251 5,500 3,000 Climbing FlightAware ADS-B (EKCH / CPH)
12:58AM -27.3538 153.2377 186° South 222 255 5,700 1,980 Climbing FlightAware ADS-B (LICP)
12:58AM -27.3564 153.2373 191° South 229 264 5,800 1,200 Climbing FlightAware ADS-B (EKCH / CPH)
12:58AM -27.3790 153.2316 194° South 262 302 6,200 1,260 Climbing FlightAware ADS-B (KSNA)
12:59AM -27.4064 153.2232 199° South 303 349 6,700 2,100 Climbing FlightAware ADS-B (KSNA)
12:59AM -27.4330 153.2115 201° Southwest 314 361 7,700 3,000 Climbing FlightAware ADS-B (KSNA)
12:59AM -27.4562 153.2014 202° Southwest 316 364 8,500 3,000 Climbing FlightAware ADS-B (YTWB)
01:00AM -27.4838 153.1896 201° Southwest 330 380 9,500 3,000 Climbing FlightAware ADS-B (YTWB)
01:00AM -27.5276 153.1706 201° Southwest 342 394 11,000 2,880 Climbing FlightAware ADS-B (YTWB)
01:01AM -27.5789 153.1484 201° Southwest 352 405 12,600 3,000 Climbing FlightAware ADS-B (KSNA)
01:01AM -27.6239 153.1288 201° Southwest 354 407 14,200 3,000 Climbing FlightAware ADS-B (EKCH / CPH)
01:02AM -27.6683 153.1095 201° Southwest 363 418 15,600 2,520 Climbing FlightAware ADS-B (EKCH / CPH)
01:02AM -27.7278 153.0835 201° Southwest 378 435 16,900 2,400 Climbing FlightAware ADS-B (LICP)
01:03AM -27.7833 153.0591 201° Southwest 380 437 18,400 2,520 Climbing FlightAware ADS-B (EKCH / CPH)
01:03AM -27.8331 153.0375 201° Southwest 385 443 19,700 2,340 Climbing FlightAware ADS-B (EKCH / CPH)
01:03AM -27.8595 153.0260 202° Southwest 382 440 20,200 1,800 Climbing FlightAware ADS-B (YTWB)
01:04AM -27.9180 153.0003 201° Southwest 404 465 21,200 1,620 Climbing FlightAware ADS-B (EKCH / CPH)
01:04AM -27.9359 152.9923 202° Southwest 401 461 21,400 1,920 Climbing FlightAware ADS-B (YTWB)
01:05AM -27.9884 152.9693 201° Southwest 411 473 22,500 2,160 Climbing FlightAware ADS-B (EKCH / CPH)
01:05AM -28.0418 152.9461 201° Southwest 412 474 23,600 2,040 Climbing FlightAware ADS-B (EKCH / CPH)
01:06AM -28.0961 152.9223 201° Southwest 416 479 24,600 1,740 Climbing FlightAware ADS-B (EKCH / CPH)
01:06AM -28.1645 152.8920 202° Southwest 419 482 25,600 1,560 Climbing FlightAware ADS-B (YTWB)
01:07AM -28.2248 152.8651 202° Southwest 432 497 26,400 1,620 Climbing FlightAware ADS-B (EKCH / CPH)
01:07AM -28.2768 152.8419 202° Southwest 437 503 27,300 1,680 Climbing FlightAware ADS-B (EKCH / CPH)
01:08AM -28.3376 152.8146 202° Southwest 441 507 28,100 1,440 Climbing FlightAware ADS-B (EKCH / CPH)
01:08AM -28.3957 152.7887 202° Southwest 445 512 28,800 1,320 Climbing FlightAware ADS-B (EKCH / CPH)
01:09AM -28.4534 152.7630 202° Southwest 450 518 29,500 1,380 Climbing FlightAware ADS-B (EKCH / CPH)
01:09AM -28.5221 152.7323 202° Southwest 454 522 30,300 1,140 Climbing FlightAware ADS-B (LICP)
01:10AM -28.5880 152.7027 202° Southwest 455 524 30,800 1,080 Climbing FlightAware ADS-B (YTWB)
01:11AM -28.6500 152.6750 202° Southwest 462 532 31,500 1,500 Climbing FlightAware ADS-B (EKCH / CPH)
01:11AM -28.7087 152.6488 202° Southwest 460 529 32,400 1,860 Climbing FlightAware ADS-B (EKCH / CPH)
01:12AM -28.7688 152.6218 202° Southwest 451 519 33,400 1,980 Climbing FlightAware ADS-B (EKCH / CPH)
01:12AM -28.8262 152.5959 202° Southwest 443 510 34,400 1,800 Climbing FlightAware ADS-B (EKCH / CPH)
01:13AM -28.8824 152.5704 202° Southwest 437 503 35,200 1,500 Climbing FlightAware ADS-B (EKCH / CPH)
01:13AM -28.9576 152.5364 202° Southwest 431 496 36,200 1,500 Climbing FlightAware ADS-B (EKCH / CPH)
01:14AM -29.0132 152.5112 202° Southwest 426 490 37,000 1,500 Climbing FlightAware ADS-B (EKCH / CPH)
01:14AM -29.0675 152.4867 202° Southwest 420 483 37,700 840 Climbing FlightAware ADS-B (EKCH / CPH)
01:15AM -29.1393 152.4541 202° Southwest 417 480 38,000 240 Climbing FlightAware ADS-B (EKCH / CPH)
01:15AM -29.1934 152.4296 202° Southwest 417 480 38,000  Level FlightAware ADS-B (EKCH / CPH)
01:16AM -29.2621 152.3985 202° Southwest 416 479 38,000  Level FlightAware ADS-B (EKCH / CPH)
01:17AM -29.3181 152.3726 202° Southwest 415 478 38,000  Level FlightAware ADS-B (EKCH / CPH)
01:17AM -29.3724 152.3476 202° Southwest 415 478 38,000  Level FlightAware ADS-B (EKCH / CPH)
01:18AM -29.4438 152.3152 202° Southwest 417 480 38,000  Level FlightAware ADS-B (EKCH / CPH)
01:18AM -29.5144 152.2833 202° Southwest 419 482 38,000  Level FlightAware ADS-B (EKCH / CPH)
01:19AM -29.5694 152.2585 202° Southwest 420 483 38,000  Level FlightAware ADS-B (EKCH / CPH)
01:19AM -29.6243 152.2336 202° Southwest 419 482 38,000  Level FlightAware ADS-B (EKCH / CPH)
01:20AM -29.6960 152.2009 202° Southwest 419 482 38,000  Level FlightAware ADS-B (EKCH / CPH)
01:21AM -29.7495 152.1763 202° Southwest 419 482 38,000  Level FlightAware ADS-B (EKCH / CPH)
01:21AM -29.8029 152.1518 202° Southwest 420 483 38,000  Level FlightAware ADS-B (EKCH / CPH)
01:22AM -29.8641 152.1236 202° Southwest 421 484 38,000 60 Level FlightAware ADS-B (EKCH / CPH)
01:23AM -29.9712 152.0738 202° Southwest 418 481 38,100  Climbing Aus ATC (RADAR)
01:23AM -29.9842 152.0684 202° Southwest 421 484 38,000 -180 Descending FlightAware ADS-B (EKCH / CPH)
01:23AM -30.0565 152.0350 202° Southwest 421 484 38,000  Level FlightAware ADS-B (EKCH / CPH)
01:24AM -30.1243 152.0036 202° Southwest 418 481 38,000  Level FlightAware ADS-B (EKCH / CPH)
01:25AM -30.2186 151.9597 202° Southwest 416 479 38,000 60 Level FlightAware ADS-B (EKCH / CPH)
01:26AM -30.3024 151.9189 202° Southwest 414 476 38,100 60 Climbing Aus ATC (RADAR)
01:26AM -30.3469 151.8984 202° Southwest 414 476 38,100  Level Aus ATC (RADAR)
01:27AM -30.4092 151.8698 202° Southwest 415 478 38,100 -120 Level Aus ATC (RADAR)
01:27AM -30.4902 151.8326 202° Southwest 419 482 38,000 -120 Descending Aus ATC (RADAR)
01:28AM -30.5162 151.8219 202° Southwest 418 481 38,000 60 Level FlightAware ADS-B (EKCH / CPH)
01:29AM -30.6423 151.7618 202° Southwest 416 479 38,100 60 Climbing Aus ATC (RADAR)
01:29AM -30.6871 151.7406 202° Southwest 418 481 38,100 -120 Level Aus ATC (RADAR)
01:30AM -30.7939 151.6921 202° Southwest 423 487 38,000 -120 Descending FlightAware ADS-B (YPLB)
01:31AM -30.8651 151.6587 202° Southwest 423 487 38,000  Level FlightAware ADS-B (YPLB)
01:32AM -30.9380 151.6244 202° Southwest 427 491 38,000  Level FlightAware ADS-B (YPLB)
01:32AM -30.9932 151.5985 202° Southwest 426 490 38,000  Level FlightAware ADS-B (YPLB)
01:33AM -31.0475 151.5729 202° Southwest 422 486 38,000  Level FlightAware ADS-B (YPLB)
01:33AM -31.1356 151.5313 202° Southwest 419 482 38,000  Level FlightAware ADS-B (YPLB)
01:34AM -31.1947 151.5032 202° Southwest 420 483 38,000  Level FlightAware ADS-B (YPLB)
01:35AM -31.2617 151.4715 202° Southwest 421 484 38,000  Level FlightAware ADS-B (YPLB)
01:35AM -31.3055 151.4508 202° Southwest 422 486 38,000  Level FlightAware ADS-B (YPLB)
01:36AM -31.3885 151.4113 202° Southwest 422 486 38,000  Level FlightAware ADS-B (YPLB)
01:36AM -31.4434 151.3864 200° South 423 487 38,000  Level FlightAware ADS-B (YPLB)
01:37AM -31.5015 151.3610 200° South 423 487 38,000  Level FlightAware ADS-B (YPLB)
01:37AM -31.5745 151.3286 201° Southwest 424 488 38,000  Level FlightAware ADS-B (YPLB)
01:38AM -31.6296 151.3038 201° Southwest 423 487 38,000  Level FlightAware ADS-B (YPLB)
01:39AM -31.7006 151.2719 201° Southwest 423 487 38,000  Level FlightAware ADS-B (YPLB)
01:39AM -31.7576 151.2462 201° Southwest 424 488 38,000 180 Level FlightAware ADS-B (YPLB)
01:40AM -31.8137 151.2206 201° Southwest 425 489 38,200  Climbing Aus ATC (RADAR)
01:40AM -31.8318 151.2128 201° Southwest 425 489 38,000 -720 Descending FlightAware ADS-B (YPLB)
01:41AM -31.9776 151.1472 200° South 423 487 37,200 -1,200 Descending FlightAware ADS-B (YPLB)
01:42AM -32.0349 151.1216 200° South 423 487 35,900 -2,760 Descending FlightAware ADS-B (YPLB)
01:42AM -32.0898 151.0965 201° Southwest 429 494 34,400 -3,000 Descending FlightAware ADS-B (YPLB)
01:43AM -32.1457 151.0714 200° South 433 498 32,900 -3,000 Descending FlightAware ADS-B (YPLB)
01:43AM -32.2001 151.0470 201° Southwest 435 501 31,400 -2,760 Descending FlightAware ADS-B (YPLB)
01:44AM -32.2602 151.0200 200° South 428 493 30,100 -2,400 Descending FlightAware ADS-B (YPLB)
01:44AM -32.3204 150.9927 201° Southwest 418 481 28,600 -2,220 Descending FlightAware ADS-B (YRPA)
01:45AM -32.3847 150.9636 201° Southwest 412 474 27,500 -2,280 Descending FlightAware ADS-B
01:45AM -32.4350 150.9409 200° South 405 466 26,400 -2,520 Descending FlightAware ADS-B (YPLB)
01:46AM -32.4907 150.9201 189° South 408 470 25,200 -2,220 Descending FlightAware ADS-B (YPLB)
01:46AM -32.5295 150.9182 176° South 413 475 24,500 -2,040 Descending FlightAware ADS-B (YPLB)
01:47AM -32.5988 150.9299 171° South 408 470 23,200 -2,220 Descending FlightAware ADS-B (YPLB)
01:47AM -32.6582 150.9405 171° South 403 464 21,900 -2,100 Descending FlightAware ADS-B (YRPA)
01:48AM -32.7194 150.9514 171° South 391 450 21,000 -900 Descending FlightAware ADS-B (YPLB)
01:48AM -32.7700 150.9605 171° South 358 412 21,000  Level FlightAware ADS-B (YPLB)
01:49AM -32.7996 150.9677 160° South 341 392 21,000  Level FlightAware ADS-B (YPLB)
01:49AM -32.8126 150.9766 144° Southeast 335 386 21,000  Level FlightAware ADS-B (YPLB)
01:49AM -32.8233 150.9901 127° Southeast 328 377 21,000  Level FlightAware ADS-B (YPLB)
01:49AM -32.8210 150.9863 116° Southeast 324 373 21,000  Level FlightAware ADS-B
01:49AM -32.8210 150.9863 101° East 319 367 21,000  Level FlightAware ADS-B
01:49AM -32.8313 151.0425 77° East 312 359 21,000  Level FlightAware ADS-B (YPLB)
01:50AM -32.8259 151.0581 61° Northeast 307 353 21,000  Level FlightAware ADS-B (YPLB)
01:50AM -32.8197 151.0683 51° Northeast 305 351 21,000  Level FlightAware ADS-B (YPLB)
01:50AM -32.8076 151.0804 31° Northeast 297 342 21,000  Level FlightAware ADS-B (YPLB)
01:50AM -32.7826 151.0897 North 290 334 21,000  Level FlightAware ADS-B (YRPA)
01:50AM -32.7704 151.0889 352° North 283 326 21,000  Level FlightAware ADS-B (YPLB)
01:51AM -32.7826 151.0897 357° North 284 327 21,000  Level FlightAware ADS-B
01:51AM -32.7057 151.0771 351° North 284 327 21,000  Level FlightAware ADS-B (YRPA)
01:52AM -32.6628 151.0689 347° North 286 329 21,000  Level FlightAware ADS-B (YPLB)
01:52AM -32.6516 151.0638 331° Northwest 294 338 21,000  Level FlightAware ADS-B (YPLB)
01:52AM -32.6418 151.0556 318° Northwest 303 349 21,000  Level FlightAware ADS-B (YPLB)
01:52AM -32.6317 151.0408 301° West 313 360 21,000  Level FlightAware ADS-B (YPLB)
01:52AM -32.6270 151.0283 289° West 318 366 21,000  Level FlightAware ADS-B (YRPA)
01:53AM -32.6260 150.9899 256° West 326 375 21,000  Level FlightAware ADS-B (YPLB)
01:53AM -32.6442 150.9265 251° West 333 383 21,000  Level FlightAware ADS-B (YRPA)
01:54AM -32.6612 150.8689 250° West 331 381 21,000  Level FlightAware ADS-B (YPLB)
01:54AM -32.6754 150.8213 250° West 332 382 21,000  Level FlightAware ADS-B (YRPA)
01:55AM -32.6967 150.7516 250° West 330 380 21,000  Level FlightAware ADS-B (YPLB)
01:55AM -32.7096 150.7229 230° Southwest 337 388 21,000  Level FlightAware ADS-B (YRPA)
01:56AM -32.7261 150.7064 212° Southwest 343 395 21,000  Level FlightAware ADS-B (YPLB)
01:56AM -32.7393 150.6995 200° South 347 399 21,000 -360 Level FlightAware ADS-B (YPLB)
01:56AM -32.7545 150.6953 189° South 346 398 20,900 -1,260 Descending FlightAware ADS-B (YPLB)
01:56AM -32.7988 150.6866 189° South 346 398 20,100 -1,560 Descending FlightAware ADS-B (YRPA)
01:57AM -32.8659 150.6981 151° Southeast 342 394 19,100 -1,440 Descending FlightAware ADS-B (YPLB)
01:57AM -32.8444 150.6875 165° South 346 398 19,000 -720 Descending FlightAware ADS-B
01:57AM -32.8893 150.7182 142° Southeast 344 396 18,800 -1,200 Descending FlightAware ADS-B (YRPA)
01:58AM -32.9669 150.7904 142° Southeast 336 387 17,600 -1,380 Descending FlightAware ADS-B (YRPA)
01:59AM -33.0138 150.8342 141° Southeast 329 379 16,600 -1,620 Descending FlightAware ADS-B (YPLB)
02:00AM -33.0519 150.8700 141° Southeast 323 372 15,600 -1,560 Descending FlightAware ADS-B (YPLB)
02:00AM -33.0963 150.9116 142° Southeast 319 367 14,800 -1,500 Descending FlightAware ADS-B (YPLB)
02:01AM -33.1353 150.9482 142° Southeast 315 362 13,900 -1,500 Descending FlightAware ADS-B
02:01AM -33.1529 150.9649 142° Southeast 309 356 13,000 -1,500 Descending FlightAware ADS-B
02:02AM -33.1964 151.0057 141° Southeast 306 352 12,600 -1,440 Descending FlightAware ADS-B (YPLB)
02:02AM -33.2089 151.0174 141° Southeast 305 351 12,400 -1,440 Descending FlightAware ADS-B (YPLB)
02:02AM -33.2198 151.0275 141° Southeast 304 350 12,100 -1,500 Descending FlightAware ADS-B (YPLB)
02:02AM -33.2342 151.0385 153° Southeast 299 344 11,800 -1,260 Descending FlightAware ADS-B
02:03AM -33.2594 151.0482 170° South 289 333 11,400 -1,200 Descending FlightAware ADS-B
02:03AM -33.2997 151.0556 172° South 283 326 10,800 -1,200 Descending FlightAware ADS-B
02:03AM -33.3101 151.0556 188° South 275 316 10,600 -1,020 Descending FlightAware ADS-B
02:04AM -33.3524 151.0468 190° South 263 303 10,100 -1,020 Descending FlightAware ADS-B (YWST)
02:04AM -33.3600 151.0452 189° South 261 300 10,000 -1,140 Descending FlightAware ADS-B (YPLB)
02:04AM -33.3722 151.0441 179° South 263 303 9,800 -1,020 Descending FlightAware ADS-B (YRAY)
02:04AM -33.3816 151.0445 175° South 262 302 9,700 -1,440 Descending FlightAware ADS-B (YPLB)
02:04AM -33.3935 151.0466 168° South 265 305 9,300 -1,380 Descending FlightAware ADS-B
02:05AM -33.4076 151.0503 167° South 264 304 9,200 -1,320 Descending FlightAware ADS-B (YPLB)
02:05AM -33.4336 151.0570 167° South 264 304 8,700 -1,080 Descending FlightAware ADS-B (YPLB)
02:05AM -33.4516 151.0615 168° South 257 296 8,500 -660 Descending FlightAware ADS-B
02:05AM -33.4666 151.0653 167° South 248 285 8,400 -480 Descending FlightAware ADS-B (YPLB)
02:06AM -33.4817 151.0692 168° South 245 282 8,300 -600 Descending FlightAware ADS-B (YRAY)
02:06AM -33.4998 151.0738 167° South 231 266 8,100 -720 Descending FlightAware ADS-B (YPLB)
02:06AM -33.5092 151.0762 167° South 224 258 8,000 -480 Descending FlightAware ADS-B (YPLB)
02:06AM -33.5214 151.0794 167° South 216 249 7,900 -600 Descending FlightAware ADS-B (YRAY)
02:06AM -33.5289 151.0815 167° South 215 247 7,800 -1,200 Descending FlightAware ADS-B (YPLB)
02:07AM -33.5468 151.0859 168° South 213 245 7,400 -1,260 Descending FlightAware ADS-B
02:07AM -33.5558 151.0881 169° South 215 247 7,200 -1,620 Descending FlightAware ADS-B (YRAY)
02:07AM -33.5686 151.0914 167° South 217 250 6,900 -1,320 Descending FlightAware ADS-B (YPLB)
02:07AM -33.5822 151.0950 168° South 217 250 6,600 -1,200 Descending FlightAware ADS-B (YRAY)
02:08AM -33.5981 151.0990 168° South 216 249 6,200 -1,320 Descending FlightAware ADS-B (YRAY)
02:08AM -33.6150 151.1033 168° South 215 247 5,900 -1,200 Descending FlightAware ADS-B
02:08AM -33.6357 151.1084 168° South 212 244 5,500 -1,200 Descending FlightAware ADS-B
02:08AM -33.6462 151.1109 168° South 214 246 5,300 -1,200 Descending FlightAware ADS-B (YPLB)
02:09AM -33.6655 151.1158 168° South 214 246 4,900 -960 Descending FlightAware ADS-B (YRAY)
02:09AM -33.6823 151.1195 170° South 198 228 4,700 -600 Descending FlightAware ADS-B (YRAY)
02:09AM -33.6955 151.1224 169° South 201 231 4,600 -540 Descending FlightAware ADS-B
02:09AM -33.7044 151.1245 168° South 201 231 4,500 -540 Descending FlightAware ADS-B (YPLB)
02:10AM -33.7175 151.1279 167° South 202 232 4,400 -720 Descending FlightAware ADS-B
02:10AM -33.7175 151.1279 168° South 203 234 4,100 -1,080 Descending FlightAware ADS-B (YRPA)
02:10AM -33.7488 151.1364 167° South 202 232 3,800 -1,200 Descending FlightAware ADS-B (YRAY)
02:11AM -33.7670 151.1411 168° South 199 229 3,400 -1,080 Descending FlightAware ADS-B (YRAY)
02:11AM -33.7827 151.1451 167° South 189 217 3,100 -780 Descending FlightAware ADS-B
02:11AM -33.8012 151.1499 168° South 171 197 2,900 -780 Descending FlightAware ADS-B
02:12AM -33.8155 151.1535 167° South 154 177 2,600 -960 Descending FlightAware ADS-B (YPLB)
02:12AM -33.8238 151.1557 168° South 146 168 2,400 -900 Descending FlightAware ADS-B (YWST)
02:12AM -33.8314 151.1576 168° South 142 163 2,200 -780 Descending FlightAware ADS-B (YRAY)
02:12AM -33.8362 151.1589 167° South 141 162 2,200 -660 Level FlightAware ADS-B (YPLB)
02:13AM -33.8504 151.1626 167° South 140 161 1,900 -900 Descending FlightAware ADS-B (YRAY)
02:13AM -33.8605 151.1653 168° South 137 158 1,600 -960 Descending FlightAware ADS-B
02:13AM -33.8626 151.1658 167° South 130 150 1,600 -600 Level FlightAware ADS-B (YRAY)
02:13AM -33.8726 151.1684 168° South 135 155 1,400 -480 Descending FlightAware ADS-B
02:13AM -33.8753 151.1691 167° South 135 155 1,400 -900 Level FlightAware ADS-B (YPLB)
02:14AM -33.8876 151.1723 168° South 134 154 1,000 -960 Descending FlightAware ADS-B
02:14AM -33.8977 151.1749 167° South 133 153 900 -540 Descending FlightAware ADS-B
02:14AM -33.9108 151.1783 168° South 132 152 700 -720 Descending FlightAware ADS-B
02:14AM -33.9200 151.1807 168° South 133 153 500 -780 Descending FlightAware ADS-B (YRAY)
02:15AM -33.9281 151.1828 168° South 133 153 300 -720 Descending FlightAware ADS-B
02:15AM -33.9405 151.1860 168° South 135 155 100 -720 Descending FlightAware ADS-B
02:15AM -33.9592 151.1908 169° South 110 127 -240 Descending FlightAware ADS-B (YRAY)